Time;durP1;ratioP1;P1;durP2;ratioP2;P2;SDS_P1;SDS_P2;PMS_P1;PMS_P2;Temp;Humidity;BMP_temperature;BMP_pressure;BME280_temperature;BME280_humidity;BME280_pressure;Samples;Min_cycle;Max_cycle;Signal;HPM_P1;HPM_P2
2022/10/20 00:01:58;;;;;;;14.30;7.27;;;18.70;59.90;;;;;;5046805;28;20188;-52
2022/10/20 00:04:24;;;;;;;8.20;7.40;;;18.50;60.80;;;;;;5048546;28;20446;-53
2022/10/20 00:06:50;;;;;;;10.70;8.57;;;18.20;61.60;;;;;;5040213;28;20203;-53
2022/10/20 00:09:15;;;;;;;9.17;6.73;;;18.00;62.20;;;;;;5044955;28;20275;-53
2022/10/20 00:11:42;;;;;;;9.07;6.97;;;18.00;62.30;;;;;;5047963;28;20883;-53
2022/10/20 00:14:08;;;;;;;8.97;7.20;;;17.90;63.00;;;;;;5049028;28;20912;-50
2022/10/20 00:16:37;;;;;;;11.40;7.97;;;17.80;63.70;;;;;;5048402;28;20458;-51
2022/10/20 00:19:03;;;;;;;8.90;7.50;;;17.70;64.10;;;;;;5040422;28;20592;-54
2022/10/20 00:21:30;;;;;;;8.70;7.40;;;17.50;64.80;;;;;;5044499;28;20938;-50
2022/10/20 00:23:59;;;;;;;8.33;7.50;;;17.50;64.80;;;;;;5041342;28;20807;-50
2022/10/20 00:26:26;;;;;;;8.53;7.67;;;17.40;64.60;;;;;;5049203;28;20439;-50
2022/10/20 00:28:53;;;;;;;12.53;7.27;;;17.30;64.80;;;;;;5049302;28;20446;-53
2022/10/20 00:31:20;;;;;;;9.77;7.90;;;17.30;65.90;;;;;;5048523;28;20491;-53
2022/10/20 00:33:47;;;;;;;8.03;6.80;;;17.30;65.30;;;;;;5046239;28;20431;-51
2022/10/20 00:36:14;;;;;;;9.33;7.60;;;17.30;65.60;;;;;;5043010;28;20502;-53
2022/10/20 00:38:41;;;;;;;8.07;7.23;;;17.50;64.80;;;;;;5024580;28;20458;-52
2022/10/20 00:41:07;;;;;;;8.20;7.20;;;17.80;64.40;;;;;;5049000;28;20454;-55
2022/10/20 00:43:41;;;;;;;20.90;7.90;;;18.00;63.40;;;;;;5046422;28;20462;-52
2022/10/20 00:46:07;;;;;;;9.00;6.70;;;18.10;62.90;;;;;;5042674;28;20465;-54
2022/10/20 00:48:34;;;;;;;9.33;8.43;;;18.10;62.70;;;;;;5044171;28;20489;-53
2022/10/20 00:50:59;;;;;;;8.17;7.30;;;18.00;62.50;;;;;;5041050;28;20984;-49
2022/10/20 00:53:28;;;;;;;9.80;7.20;;;18.20;62.40;;;;;;5048701;28;20446;-53
2022/10/20 00:55:55;;;;;;;11.50;8.00;;;18.40;61.60;;;;;;5051183;28;20224;-54
2022/10/20 00:58:21;;;;;;;11.97;8.20;;;18.50;61.80;;;;;;5046229;28;20500;-53
2022/10/20 01:00:52;;;;;;;10.90;7.87;;;18.60;60.30;;;;;;5049918;28;20485;-50
2022/10/20 01:03:27;;;;;;;8.43;7.40;;;18.60;60.30;;;;;;5043943;28;20195;-53
2022/10/20 01:05:52;;;;;;;14.97;8.10;;;18.50;60.80;;;;;;5047350;28;20522;-50
2022/10/20 01:08:18;;;;;;;16.53;8.33;;;18.50;60.20;;;;;;5043199;28;20531;-52
2022/10/20 01:10:59;;;;;;;8.37;7.47;;;18.50;60.10;;;;;;5043831;28;20193;-53
2022/10/20 01:13:46;;;;;;;10.60;6.97;;;18.30;59.80;;;;;;5050329;28;20254;-51
2022/10/20 01:16:22;;;;;;;13.10;8.73;;;18.10;60.80;;;;;;5050019;28;20901;-53
2022/10/20 01:19:36;;;;;;;8.43;7.57;;;18.00;60.80;;;;;;5049743;28;20973;-50
2022/10/20 01:22:14;;;;;;;8.83;7.90;;;18.00;61.50;;;;;;5048030;28;20444;-53
2022/10/20 01:24:49;;;;;;;11.10;8.10;;;17.60;61.30;;;;;;5044717;28;20446;-53
2022/10/20 01:27:33;;;;;;;9.93;8.70;;;16.80;64.20;;;;;;5043043;28;20443;-50
2022/10/20 01:30:14;;;;;;;10.20;8.40;;;16.60;65.60;;;;;;5047779;28;20442;-49
2022/10/20 01:32:42;;;;;;;13.83;8.40;;;16.60;65.70;;;;;;5039991;28;20935;-50
2022/10/20 01:35:24;;;;;;;19.90;9.13;;;16.20;67.20;;;;;;5047972;28;20490;-49
2022/10/20 01:37:58;;;;;;;10.20;8.70;;;16.00;68.80;;;;;;5041550;28;20482;-51
2022/10/20 01:40:30;;;;;;;12.73;8.47;;;16.00;69.00;;;;;;5047350;28;20439;-53
2022/10/20 01:42:59;;;;;;;15.17;9.13;;;16.10;68.60;;;;;;5036510;28;20447;-53
2022/10/20 01:45:28;;;;;;;16.83;9.00;;;16.20;68.00;;;;;;5047188;28;20431;-53
2022/10/20 01:47:55;;;;;;;11.00;8.57;;;16.40;67.60;;;;;;5046903;28;20446;-53
2022/10/20 01:50:21;;;;;;;10.30;9.23;;;16.50;67.00;;;;;;5048612;28;20435;-53
2022/10/20 01:52:47;;;;;;;12.90;8.90;;;16.60;66.30;;;;;;5046785;28;20938;-50
2022/10/20 01:55:15;;;;;;;11.03;9.93;;;16.70;65.80;;;;;;5046053;28;20485;-50
2022/10/20 01:57:59;;;;;;;12.27;9.70;;;16.60;65.50;;;;;;5042039;28;20648;-51
2022/10/20 02:00:25;;;;;;;9.90;8.27;;;16.30;67.20;;;;;;5050076;28;20855;-54
2022/10/20 02:03:20;;;;;;;11.10;8.80;;;16.30;67.90;;;;;;5047975;28;20436;-54
2022/10/20 02:06:28;;;;;;;11.23;8.73;;;16.40;67.40;;;;;;5048947;28;20200;-50
2022/10/20 02:09:04;;;;;;;10.20;8.20;;;16.50;66.90;;;;;;5033821;28;20450;-52
2022/10/20 02:11:54;;;;;;;9.70;7.63;;;16.70;66.00;;;;;;5037548;28;20449;-52
2022/10/20 02:14:22;;;;;;;10.60;8.53;;;16.90;65.90;;;;;;5042394;28;20450;-51
2022/10/20 02:16:51;;;;;;;10.00;8.10;;;16.60;65.50;;;;;;5045487;28;20443;-52
2022/10/20 02:19:22;;;;;;;10.23;8.77;;;16.50;66.30;;;;;;5048766;28;20801;-54
2022/10/20 02:21:50;;;;;;;10.17;8.67;;;16.50;66.20;;;;;;5046815;28;20947;-51
2022/10/20 02:24:17;;;;;;;10.07;8.80;;;16.40;66.40;;;;;;5049148;28;20473;-53
2022/10/20 02:26:43;;;;;;;10.30;9.20;;;16.60;66.20;;;;;;5041547;28;20458;-51
2022/10/20 02:29:20;;;;;;;10.00;8.43;;;16.60;66.00;;;;;;5041978;28;20533;-54
2022/10/20 02:31:46;;;;;;;10.70;9.37;;;16.70;65.60;;;;;;5040063;28;20869;-53
2022/10/20 02:34:12;;;;;;;10.00;8.70;;;16.70;65.60;;;;;;5039653;28;20467;-53
2022/10/20 02:36:40;;;;;;;9.57;8.43;;;16.80;65.50;;;;;;5039855;28;20234;-52
2022/10/20 02:39:06;;;;;;;11.57;9.30;;;16.90;65.40;;;;;;5037698;28;20454;-54
2022/10/20 02:41:32;;;;;;;9.37;8.30;;;17.00;64.70;;;;;;5043039;28;20853;-53
2022/10/20 02:43:58;;;;;;;9.73;8.70;;;17.10;64.10;;;;;;5044194;28;20193;-53
2022/10/20 02:46:23;;;;;;;9.27;8.33;;;17.20;63.50;;;;;;5046247;28;20438;-53
2022/10/20 02:48:49;;;;;;;8.63;7.40;;;17.30;63.20;;;;;;5046412;28;20327;-53
2022/10/20 02:51:16;;;;;;;12.77;8.63;;;17.30;62.50;;;;;;5041042;28;20283;-54
2022/10/20 02:53:42;;;;;;;10.73;8.53;;;17.40;62.10;;;;;;5039078;28;20651;-54
2022/10/20 02:56:08;;;;;;;10.80;9.30;;;17.40;61.80;;;;;;5044639;28;21059;-54
2022/10/20 02:58:33;;;;;;;12.73;8.13;;;17.40;61.70;;;;;;5043137;28;20471;-53
2022/10/20 03:00:59;;;;;;;10.60;8.57;;;17.40;61.70;;;;;;5041479;28;20198;-54
2022/10/20 03:03:24;;;;;;;11.07;8.40;;;17.40;61.70;;;;;;5043838;28;20184;-51
2022/10/20 03:05:50;;;;;;;9.60;7.70;;;17.30;61.80;;;;;;5045902;28;20200;-54
2022/10/20 03:08:16;;;;;;;11.10;9.13;;;17.30;61.90;;;;;;5043011;28;20195;-53
2022/10/20 03:10:42;;;;;;;10.23;8.53;;;17.30;61.90;;;;;;5032224;28;20204;-53
2022/10/20 03:13:09;;;;;;;10.20;8.20;;;17.10;62.40;;;;;;5035458;28;20805;-52
2022/10/20 03:15:35;;;;;;;9.47;7.90;;;17.00;63.00;;;;;;5040996;28;20491;-54
2022/10/20 03:18:01;;;;;;;9.07;7.87;;;17.00;63.10;;;;;;5037707;28;20440;-52
2022/10/20 03:20:26;;;;;;;9.00;7.90;;;17.00;62.90;;;;;;5042747;28;20443;-54
2022/10/20 03:22:52;;;;;;;8.80;7.77;;;17.10;62.90;;;;;;5040913;28;20591;-53
2022/10/20 03:25:17;;;;;;;8.83;7.60;;;17.10;62.50;;;;;;5042249;28;20204;-54
2022/10/20 03:27:43;;;;;;;9.73;8.50;;;17.00;63.10;;;;;;5052227;28;20204;-54
2022/10/20 03:30:09;;;;;;;9.10;8.03;;;17.00;62.90;;;;;;5039917;28;20242;-53
2022/10/20 03:32:35;;;;;;;13.33;8.60;;;17.00;62.70;;;;;;5043547;28;20200;-53
2022/10/20 03:35:00;;;;;;;9.23;8.20;;;17.00;62.80;;;;;;5043049;28;20486;-54
2022/10/20 03:37:26;;;;;;;12.20;8.87;;;17.00;62.70;;;;;;5046565;28;20259;-53
2022/10/20 03:39:51;;;;;;;12.53;8.93;;;17.10;62.70;;;;;;5037404;28;20227;-54
2022/10/20 03:42:17;;;;;;;11.83;9.23;;;17.00;63.10;;;;;;5044388;28;20196;-53
2022/10/20 03:44:45;;;;;;;13.90;8.57;;;17.00;63.30;;;;;;5045365;28;20363;-53
2022/10/20 03:47:12;;;;;;;13.83;10.40;;;16.80;64.10;;;;;;5044569;28;20196;-52
2022/10/20 03:49:37;;;;;;;14.80;9.40;;;16.80;64.70;;;;;;5043418;28;20438;-54
2022/10/20 03:52:03;;;;;;;10.10;8.90;;;16.80;65.00;;;;;;5043030;28;20446;-49
2022/10/20 03:54:29;;;;;;;13.03;9.33;;;16.80;65.40;;;;;;5043931;28;20195;-49
2022/10/20 03:56:54;;;;;;;12.80;9.73;;;16.80;65.70;;;;;;5041456;28;20805;-49
2022/10/20 03:59:20;;;;;;;11.57;10.10;;;16.90;65.40;;;;;;5043829;28;20244;-50
2022/10/20 04:01:46;;;;;;;13.13;10.03;;;16.90;65.00;;;;;;5043290;28;20196;-49
2022/10/20 04:04:12;;;;;;;12.67;9.50;;;16.90;64.80;;;;;;5042177;28;20583;-52
2022/10/20 04:06:37;;;;;;;11.17;9.97;;;16.90;65.10;;;;;;5043855;28;20451;-51
2022/10/20 04:09:03;;;;;;;13.97;10.63;;;16.90;64.90;;;;;;5045680;28;20213;-53
2022/10/20 04:11:32;;;;;;;15.00;12.00;;;16.80;65.50;;;;;;5046369;28;20193;-54
2022/10/20 04:13:58;;;;;;;15.27;11.00;;;16.80;66.00;;;;;;5040614;28;20617;-53
2022/10/20 04:16:24;;;;;;;12.80;10.03;;;16.60;66.70;;;;;;5038500;28;20480;-53
2022/10/20 04:18:54;;;;;;;18.60;11.03;;;16.60;66.90;;;;;;5044303;28;20671;-52
2022/10/20 04:21:19;;;;;;;17.00;10.40;;;16.60;66.40;;;;;;5043498;28;20195;-50
2022/10/20 04:23:45;;;;;;;14.03;9.97;;;16.60;66.90;;;;;;5044346;28;20930;-53
2022/10/20 04:26:13;;;;;;;18.43;12.50;;;16.50;66.30;;;;;;5038312;28;20278;-50
2022/10/20 04:28:39;;;;;;;15.07;10.33;;;16.20;68.30;;;;;;5035360;28;20672;-53
2022/10/20 04:31:05;;;;;;;13.20;10.43;;;16.10;68.30;;;;;;5040562;28;20446;-50
2022/10/20 04:33:31;;;;;;;16.03;11.80;;;16.20;68.30;;;;;;5040908;28;20208;-53
2022/10/20 04:36:01;;;;;;;13.47;10.83;;;16.20;68.70;;;;;;5043265;28;21019;-54
2022/10/20 04:38:29;;;;;;;18.00;10.90;;;16.20;69.10;;;;;;5045584;28;20239;-53
2022/10/20 04:40:56;;;;;;;16.30;12.53;;;16.00;70.30;;;;;;5049927;28;20443;-55
2022/10/20 04:43:22;;;;;;;17.03;11.70;;;15.90;71.40;;;;;;5048865;28;20949;-53
2022/10/20 04:45:48;;;;;;;17.10;11.63;;;16.00;71.40;;;;;;5046364;28;20524;-53
2022/10/20 04:48:14;;;;;;;18.63;11.53;;;15.90;72.10;;;;;;5041653;28;20270;-53
2022/10/20 04:50:39;;;;;;;13.70;10.73;;;15.90;72.30;;;;;;5043635;28;20454;-53
2022/10/20 04:53:06;;;;;;;15.10;11.23;;;16.10;71.30;;;;;;5048273;28;20851;-54
2022/10/20 04:55:32;;;;;;;14.67;10.57;;;16.40;70.30;;;;;;5048930;28;20232;-52
2022/10/20 04:57:57;;;;;;;14.40;10.33;;;16.50;69.30;;;;;;5046541;28;20786;-49
2022/10/20 05:00:23;;;;;;;16.23;10.63;;;16.70;68.30;;;;;;5048103;28;20185;-53
2022/10/20 05:02:48;;;;;;;16.33;10.37;;;16.70;67.80;;;;;;5043044;28;20192;-50
2022/10/20 05:05:14;;;;;;;15.97;11.10;;;16.70;67.50;;;;;;5044254;28;20192;-53
2022/10/20 05:07:40;;;;;;;15.67;10.80;;;16.60;67.90;;;;;;5042649;28;20312;-51
2022/10/20 05:10:06;;;;;;;14.13;11.30;;;16.50;68.60;;;;;;5048146;28;20199;-53
2022/10/20 05:12:31;;;;;;;14.53;10.47;;;16.60;68.70;;;;;;5042636;28;20197;-54
2022/10/20 05:14:57;;;;;;;20.00;12.50;;;16.30;69.70;;;;;;5042430;28;20475;-50
2022/10/20 05:17:23;;;;;;;14.80;11.57;;;16.30;70.40;;;;;;5043659;28;20274;-53
2022/10/20 05:19:49;;;;;;;15.10;12.13;;;16.20;70.90;;;;;;5042203;28;20284;-52
2022/10/20 05:22:14;;;;;;;15.27;12.00;;;16.30;71.00;;;;;;5045408;28;20526;-49
2022/10/20 05:24:40;;;;;;;22.30;13.23;;;16.40;70.40;;;;;;5048904;28;20193;-53
2022/10/20 05:27:05;;;;;;;17.67;10.10;;;16.50;70.00;;;;;;5045115;28;20272;-54
2022/10/20 05:29:31;;;;;;;15.97;11.60;;;16.50;69.60;;;;;;5042109;28;20579;-54
2022/10/20 05:31:56;;;;;;;14.43;11.50;;;16.80;70.40;;;;;;5055768;28;20238;-50
2022/10/20 05:34:22;;;;;;;14.57;10.40;;;16.90;70.40;;;;;;5045995;28;20458;-52
2022/10/20 05:36:48;;;;;;;11.80;8.97;;;17.10;70.20;;;;;;5045753;28;20236;-54
2022/10/20 05:39:13;;;;;;;16.10;11.20;;;17.20;69.10;;;;;;5045356;28;20280;-53
2022/10/20 05:41:39;;;;;;;11.60;8.73;;;17.10;68.60;;;;;;5037155;28;20387;-54
2022/10/20 05:44:07;;;;;;;11.97;9.80;;;17.30;68.70;;;;;;5048539;28;20283;-53
2022/10/20 05:46:37;;;;;;;14.00;9.60;;;17.30;68.10;;;;;;5040206;28;20302;-54
2022/10/20 05:49:02;;;;;;;10.90;9.43;;;17.30;67.70;;;;;;5044354;28;20447;-53
2022/10/20 05:51:32;;;;;;;11.00;8.80;;;17.30;67.70;;;;;;5045389;28;20970;-53
2022/10/20 05:53:58;;;;;;;14.40;9.70;;;17.30;67.30;;;;;;5041899;28;20545;-53
2022/10/20 05:56:26;;;;;;;11.03;9.73;;;17.30;67.10;;;;;;5040059;28;20581;-54
2022/10/20 05:58:52;;;;;;;13.10;9.43;;;17.20;67.90;;;;;;5043358;28;20450;-55
2022/10/20 06:01:22;;;;;;;9.93;8.73;;;17.30;67.60;;;;;;5050672;28;20439;-53
2022/10/20 06:03:52;;;;;;;11.37;9.60;;;17.30;67.50;;;;;;5043560;28;20471;-53
2022/10/20 06:06:19;;;;;;;10.40;9.37;;;17.20;67.60;;;;;;5051303;28;20922;-54
2022/10/20 06:08:45;;;;;;;10.53;9.43;;;17.20;68.00;;;;;;5050712;28;20743;-50
2022/10/20 06:11:13;;;;;;;10.07;9.00;;;17.10;67.80;;;;;;5049082;28;20442;-54
2022/10/20 06:13:38;;;;;;;11.67;9.30;;;17.20;68.50;;;;;;5044738;28;20447;-52
2022/10/20 06:16:13;;;;;;;10.07;7.40;;;16.80;68.80;;;;;;5049026;28;20490;-51
2022/10/20 06:18:39;;;;;;;9.83;8.83;;;16.90;69.40;;;;;;5048006;28;20200;-53
2022/10/20 06:21:20;;;;;;;9.77;8.77;;;16.80;69.30;;;;;;5050660;28;20453;-53
2022/10/20 06:23:45;;;;;;;11.27;8.53;;;16.50;70.50;;;;;;5047074;28;20202;-54
2022/10/20 06:26:16;;;;;;;10.97;9.47;;;16.40;71.60;;;;;;5051048;28;20576;-52
2022/10/20 06:28:42;;;;;;;10.60;9.30;;;16.20;72.40;;;;;;5046297;28;20604;-54
2022/10/20 06:31:18;;;;;;;9.53;8.33;;;16.40;72.20;;;;;;5043422;28;20471;-54
2022/10/20 06:33:44;;;;;;;11.17;8.87;;;16.40;71.60;;;;;;5041459;28;20470;-54
2022/10/20 06:36:10;;;;;;;8.30;7.33;;;16.60;70.90;;;;;;5040589;28;20490;-53
2022/10/20 06:38:37;;;;;;;9.80;8.03;;;16.40;71.90;;;;;;5041114;28;20550;-52
2022/10/20 06:41:04;;;;;;;10.63;9.00;;;16.50;72.10;;;;;;5044962;28;20465;-53
2022/10/20 06:43:30;;;;;;;9.47;7.73;;;16.80;71.20;;;;;;5038035;28;20442;-51
2022/10/20 06:46:01;;;;;;;9.70;8.57;;;16.90;69.90;;;;;;5044526;28;20540;-53
2022/10/20 06:48:28;;;;;;;11.20;8.30;;;17.00;70.20;;;;;;5045034;28;20189;-51
2022/10/20 06:51:01;;;;;;;8.47;7.40;;;17.10;69.70;;;;;;5047455;28;20552;-54
2022/10/20 06:53:28;;;;;;;10.67;9.40;;;17.30;69.10;;;;;;5028415;28;20490;-53
2022/10/20 06:55:56;;;;;;;8.97;8.17;;;17.30;68.50;;;;;;5040214;28;20608;-54
2022/10/20 06:58:22;;;;;;;7.80;7.00;;;17.30;68.80;;;;;;5046340;28;20474;-52
2022/10/20 07:00:56;;;;;;;8.73;7.93;;;17.20;69.10;;;;;;5047802;28;20462;-53
2022/10/20 07:03:21;;;;;;;9.70;8.70;;;17.20;69.90;;;;;;5041599;28;20427;-52
2022/10/20 07:05:47;;;;;;;9.70;7.63;;;17.50;68.90;;;;;;5045900;28;20943;-53
2022/10/20 07:08:12;;;;;;;7.70;6.90;;;17.70;68.00;;;;;;5045367;28;20608;-52
2022/10/20 07:10:38;;;;;;;10.13;8.43;;;17.90;67.50;;;;;;5046065;28;20196;-54
2022/10/20 07:13:03;;;;;;;8.10;7.30;;;17.90;66.70;;;;;;5038410;28;20197;-55
2022/10/20 07:15:29;;;;;;;8.10;7.30;;;18.00;66.70;;;;;;5049837;28;20252;-53
2022/10/20 07:17:55;;;;;;;10.30;7.63;;;18.00;66.20;;;;;;5049517;28;20261;-54
2022/10/20 07:20:20;;;;;;;8.37;7.23;;;18.10;67.00;;;;;;5047076;28;20200;-50
2022/10/20 07:22:46;;;;;;;8.30;7.27;;;18.20;66.50;;;;;;5042176;28;20188;-53
2022/10/20 07:25:11;;;;;;;6.77;6.13;;;18.50;65.80;;;;;;5042325;28;20645;-54
2022/10/20 07:27:37;;;;;;;8.57;6.07;;;18.30;66.50;;;;;;5047186;28;20759;-53
2022/10/20 07:30:03;;;;;;;7.50;6.80;;;18.00;66.90;;;;;;5046109;28;20192;-53
2022/10/20 07:32:29;;;;;;;7.67;6.97;;;18.00;67.70;;;;;;5044491;28;20199;-52
2022/10/20 07:34:55;;;;;;;10.03;7.53;;;17.90;67.60;;;;;;5045672;28;20490;-50
2022/10/20 07:37:20;;;;;;;8.30;6.90;;;17.90;68.30;;;;;;5043756;28;20785;-52
2022/10/20 07:39:46;;;;;;;8.20;7.13;;;17.90;69.00;;;;;;5043455;28;20564;-51
2022/10/20 07:42:12;;;;;;;7.83;6.33;;;17.80;69.20;;;;;;5044059;28;20197;-49
2022/10/20 07:44:37;;;;;;;7.83;6.40;;;17.60;69.50;;;;;;5042589;28;20648;-49
2022/10/20 07:47:03;;;;;;;7.33;6.73;;;17.60;69.70;;;;;;5041571;28;20196;-49
2022/10/20 07:49:28;;;;;;;6.90;5.93;;;17.60;70.20;;;;;;5035002;28;20227;-52
2022/10/20 07:51:54;;;;;;;6.93;5.50;;;17.70;69.80;;;;;;5047344;28;20204;-54
2022/10/20 07:54:19;;;;;;;6.63;6.03;;;18.10;68.90;;;;;;5041735;28;20200;-52
2022/10/20 07:56:45;;;;;;;6.93;6.33;;;18.40;68.10;;;;;;5037897;28;20201;-55
2022/10/20 07:59:12;;;;;;;6.07;5.47;;;18.50;67.20;;;;;;5039374;28;20192;-51
2022/10/20 08:01:37;;;;;;;6.00;5.40;;;18.40;67.70;;;;;;5039102;28;20236;-50
2022/10/20 08:04:03;;;;;;;5.67;5.23;;;18.20;67.70;;;;;;5043563;28;20461;-54
2022/10/20 08:06:29;;;;;;;6.13;5.57;;;18.20;68.00;;;;;;5047188;28;20218;-49
2022/10/20 08:08:55;;;;;;;5.77;5.27;;;18.30;68.40;;;;;;5048814;28;20209;-52
2022/10/20 08:11:21;;;;;;;6.20;5.60;;;18.20;68.80;;;;;;5047162;28;20188;-53
2022/10/20 08:13:46;;;;;;;7.53;5.83;;;18.40;67.70;;;;;;5044400;28;20204;-53
2022/10/20 08:16:13;;;;;;;5.63;5.23;;;18.60;67.50;;;;;;5041991;28;20232;-53
2022/10/20 08:18:39;;;;;;;6.77;6.07;;;18.60;66.20;;;;;;5043008;28;20566;-52
2022/10/20 08:21:18;;;;;;;5.90;5.40;;;18.40;67.00;;;;;;5047141;28;20925;-53
2022/10/20 08:23:46;;;;;;;5.33;4.93;;;18.30;66.90;;;;;;5044909;28;20494;-53
2022/10/20 08:26:15;;;;;;;5.17;4.77;;;18.40;67.30;;;;;;5049655;28;20470;-55
2022/10/20 08:28:41;;;;;;;5.67;5.07;;;18.50;67.60;;;;;;5048219;28;20474;-54
2022/10/20 08:31:07;;;;;;;5.57;5.07;;;18.60;67.40;;;;;;5044540;28;20479;-54
2022/10/20 08:33:33;;;;;;;5.50;5.00;;;18.80;66.50;;;;;;5050231;28;20195;-54
2022/10/20 08:36:07;;;;;;;5.93;5.33;;;18.90;66.20;;;;;;5047378;28;20514;-54
2022/10/20 08:38:34;;;;;;;5.27;4.87;;;19.00;65.00;;;;;;5037522;28;20487;-53
2022/10/20 08:41:00;;;;;;;5.37;4.97;;;19.00;65.70;;;;;;5047060;28;20453;-54
2022/10/20 08:43:28;;;;;;;4.97;4.57;;;19.20;65.00;;;;;;5049945;28;20468;-54
2022/10/20 08:45:53;;;;;;;4.63;4.23;;;19.30;65.30;;;;;;5039606;28;20911;-53
2022/10/20 08:48:25;;;;;;;4.83;4.33;;;19.30;64.90;;;;;;5046800;28;20435;-54
2022/10/20 08:50:52;;;;;;;5.10;4.70;;;19.50;64.30;;;;;;5049699;28;20640;-53
2022/10/20 08:53:21;;;;;;;4.50;4.10;;;19.50;63.80;;;;;;5049802;28;20989;-55
2022/10/20 08:55:47;;;;;;;4.70;4.13;;;19.70;63.50;;;;;;5050776;28;20517;-54
2022/10/20 08:58:21;;;;;;;5.17;4.67;;;20.00;62.70;;;;;;5043360;28;20935;-52
2022/10/20 09:00:49;;;;;;;7.83;4.43;;;20.00;62.00;;;;;;5032410;28;20537;-54
2022/10/20 09:03:15;;;;;;;5.60;5.10;;;20.10;62.00;;;;;;5042903;28;20455;-54
2022/10/20 09:05:43;;;;;;;3.90;3.60;;;20.00;62.20;;;;;;5043782;28;21074;-53
2022/10/20 09:08:08;;;;;;;5.33;4.23;;;19.90;62.00;;;;;;5047779;28;20188;-53
2022/10/20 09:10:36;;;;;;;3.73;3.40;;;20.00;62.30;;;;;;5041767;28;20443;-54
2022/10/20 09:13:10;;;;;;;6.47;4.20;;;20.30;62.20;;;;;;5042118;28;20281;-54
2022/10/20 09:15:37;;;;;;;4.10;3.80;;;20.60;61.20;;;;;;5046417;28;20494;-54
2022/10/20 09:18:08;;;;;;;7.37;3.80;;;20.50;60.60;;;;;;5046591;28;20447;-53
2022/10/20 09:20:43;;;;;;;4.83;4.43;;;20.60;60.40;;;;;;5045185;28;20447;-54
2022/10/20 09:23:18;;;;;;;10.70;4.10;;;20.90;60.20;;;;;;5048447;28;20983;-55
2022/10/20 09:25:44;;;;;;;4.27;3.93;;;21.00;59.40;;;;;;5044875;28;20512;-55
2022/10/20 09:28:27;;;;;;;3.77;3.47;;;21.00;58.80;;;;;;5040561;28;20454;-55
2022/10/20 09:30:54;;;;;;;4.87;4.43;;;21.20;59.00;;;;;;5043646;28;20451;-55
2022/10/20 09:33:27;;;;;;;4.50;4.20;;;21.30;58.50;;;;;;5047631;28;20447;-57
2022/10/20 09:35:56;;;;;;;4.80;4.30;;;21.40;58.00;;;;;;5045979;28;20491;-55
2022/10/20 09:38:28;;;;;;;4.53;4.20;;;21.50;58.10;;;;;;5040808;28;20592;-56
2022/10/20 09:41:06;;;;;;;5.10;3.90;;;21.70;57.60;;;;;;5043705;28;20521;-55
2022/10/20 09:43:32;;;;;;;3.93;3.63;;;21.60;57.20;;;;;;5043540;28;20504;-54
2022/10/20 09:46:04;;;;;;;4.57;4.17;;;21.60;57.60;;;;;;5048014;28;20447;-55
2022/10/20 09:48:46;;;;;;;5.20;4.00;;;21.60;57.40;;;;;;5042435;28;20197;-55
2022/10/20 09:51:15;;;;;;;4.10;3.23;;;21.70;57.50;;;;;;5049361;28;20458;-55
2022/10/20 09:54:07;;;;;;;4.47;4.07;;;21.60;57.40;;;;;;5040992;28;20448;-55
2022/10/20 09:56:36;;;;;;;4.30;3.73;;;21.50;57.50;;;;;;5043787;28;20486;-56
2022/10/20 09:59:06;;;;;;;3.60;3.30;;;21.60;57.80;;;;;;5047367;28;20822;-54
2022/10/20 10:01:32;;;;;;;3.77;3.43;;;22.00;57.30;;;;;;5034554;28;20440;-55
2022/10/20 10:04:00;;;;;;;3.90;3.60;;;22.20;56.50;;;;;;5050785;28;20435;-55
2022/10/20 10:06:37;;;;;;;4.00;3.63;;;22.20;56.10;;;;;;5044974;28;20563;-55
2022/10/20 10:09:36;;;;;;;4.70;3.73;;;22.10;55.80;;;;;;5043527;28;20455;-55
2022/10/20 10:12:15;;;;;;;7.63;4.27;;;22.00;57.40;;;;;;5036443;28;20440;-58
2022/10/20 10:15:02;;;;;;;7.70;3.90;;;22.20;56.50;;;;;;5043539;28;20439;-55
2022/10/20 10:17:33;;;;;;;3.40;3.10;;;22.40;56.10;;;;;;5045883;28;20562;-55
2022/10/20 10:20:00;;;;;;;3.67;3.37;;;22.40;55.60;;;;;;5042538;28;20494;-55
2022/10/20 10:22:26;;;;;;;3.97;3.57;;;22.40;55.50;;;;;;5049211;28;20439;-54
2022/10/20 10:24:54;;;;;;;3.30;3.00;;;22.40;55.90;;;;;;5051297;28;20451;-56
2022/10/20 10:27:28;;;;;;;3.70;3.40;;;22.50;55.80;;;;;;5046799;28;20469;-55
2022/10/20 10:29:55;;;;;;;6.90;2.90;;;22.40;55.90;;;;;;5040095;28;20455;-55
2022/10/20 10:32:26;;;;;;;4.63;3.27;;;22.50;56.50;;;;;;5050240;28;20467;-55
2022/10/20 10:34:59;;;;;;;3.60;2.70;;;22.70;56.70;;;;;;5047716;28;20870;-55
2022/10/20 10:37:26;;;;;;;4.43;3.30;;;22.90;56.30;;;;;;5049013;28;20487;-55
2022/10/20 10:39:52;;;;;;;3.37;3.07;;;23.10;55.70;;;;;;5043482;28;21202;-54
2022/10/20 10:42:32;;;;;;;4.20;3.03;;;23.20;55.30;;;;;;5040782;28;20436;-56
2022/10/20 10:45:29;;;;;;;6.63;3.30;;;23.30;55.20;;;;;;5045686;28;20216;-57
2022/10/20 10:48:25;;;;;;;3.90;3.60;;;23.30;54.90;;;;;;5047155;28;20455;-56
2022/10/20 10:51:00;;;;;;;3.93;3.50;;;23.40;54.50;;;;;;5042037;28;20447;-55
2022/10/20 10:53:44;;;;;;;3.80;3.37;;;23.20;54.30;;;;;;5048550;28;20476;-55
2022/10/20 10:56:15;;;;;;;4.17;3.20;;;23.20;55.30;;;;;;5051038;28;20507;-55
2022/10/20 10:58:54;;;;;;;3.60;3.30;;;23.20;54.10;;;;;;5046327;28;20938;-54
2022/10/20 11:01:32;;;;;;;3.90;3.60;;;23.30;55.00;;;;;;5047741;28;20442;-55
2022/10/20 11:04:06;;;;;;;3.70;2.97;;;23.30;53.60;;;;;;5047933;28;20443;-55
2022/10/20 11:06:44;;;;;;;3.60;3.37;;;23.30;54.60;;;;;;5041790;28;20466;-55
2022/10/20 11:09:21;;;;;;;4.43;3.70;;;23.50;54.50;;;;;;5033678;28;20532;-54
2022/10/20 11:12:01;;;;;;;4.00;3.60;;;23.60;54.00;;;;;;5047495;28;20938;-55
2022/10/20 11:14:33;;;;;;;3.27;3.00;;;23.60;53.70;;;;;;5049742;28;20446;-57
2022/10/20 11:17:17;;;;;;;4.60;3.20;;;23.60;54.60;;;;;;5046433;28;20442;-55
2022/10/20 11:19:57;;;;;;;7.97;3.93;;;23.60;54.00;;;;;;5040904;28;20455;-54
2022/10/20 11:22:36;;;;;;;3.60;3.03;;;23.70;54.50;;;;;;5046278;28;20581;-56
2022/10/20 11:25:10;;;;;;;3.00;2.80;;;23.80;54.30;;;;;;5035920;28;20411;-55
2022/10/20 11:27:37;;;;;;;3.50;3.20;;;23.90;54.00;;;;;;5044968;28;20446;-54
2022/10/20 11:30:20;;;;;;;8.47;3.67;;;23.80;53.90;;;;;;5048630;28;21512;-56
2022/10/20 11:32:54;;;;;;;3.57;3.27;;;23.80;53.60;;;;;;5042252;28;20447;-56
2022/10/20 11:35:38;;;;;;;3.20;3.00;;;24.00;53.60;;;;;;5047070;28;20569;-57
2022/10/20 11:38:33;;;;;;;3.70;3.40;;;24.00;53.30;;;;;;5032647;28;20575;-54
2022/10/20 11:41:17;;;;;;;3.60;3.30;;;24.10;53.40;;;;;;5030999;28;20549;-56
2022/10/20 11:43:52;;;;;;;3.80;3.37;;;24.10;53.60;;;;;;5055443;28;20461;-55
2022/10/20 11:46:29;;;;;;;5.03;3.30;;;24.00;53.40;;;;;;5054392;28;20474;-56
2022/10/20 11:48:54;;;;;;;3.33;3.00;;;24.00;53.90;;;;;;5045126;28;20469;-56
2022/10/20 11:51:29;;;;;;;3.77;3.30;;;24.10;53.10;;;;;;5055359;28;20443;-56
2022/10/20 11:54:25;;;;;;;4.40;3.43;;;23.90;52.70;;;;;;5045233;28;20283;-54
2022/10/20 11:57:06;;;;;;;3.70;3.27;;;23.60;54.10;;;;;;5053604;28;20573;-55
2022/10/20 12:00:10;;;;;;;3.57;3.27;;;23.60;54.60;;;;;;5055353;28;20457;-55
2022/10/20 12:03:03;;;;;;;3.57;3.03;;;23.70;53.70;;;;;;5012122;28;20471;-55
2022/10/20 12:05:41;;;;;;;4.37;3.80;;;23.90;54.30;;;;;;5054779;28;20443;-56
2022/10/20 12:08:37;;;;;;;4.17;3.60;;;23.70;54.30;;;;;;5055045;28;20846;-55
2022/10/20 12:11:12;;;;;;;3.60;3.30;;;23.80;53.90;;;;;;5049377;28;20443;-55
2022/10/20 12:14:02;;;;;;;4.20;3.23;;;23.60;54.10;;;;;;5045433;28;20499;-55
2022/10/20 12:17:13;;;;;;;4.50;3.80;;;23.80;54.30;;;;;;5054960;28;20853;-56
2022/10/20 12:19:39;;;;;;;4.00;3.70;;;23.70;53.90;;;;;;4971830;28;20449;-55
2022/10/20 12:22:14;;;;;;;3.90;3.53;;;23.60;54.30;;;;;;4972344;28;20447;-55
2022/10/20 12:24:51;;;;;;;4.70;3.40;;;23.40;54.30;;;;;;5016841;28;20253;-54
2022/10/20 12:27:26;;;;;;;5.17;3.90;;;23.50;54.50;;;;;;5055570;28;20442;-55
2022/10/20 12:30:24;;;;;;;3.23;3.03;;;23.30;54.60;;;;;;5051990;28;20467;-56
2022/10/20 12:32:54;;;;;;;3.93;3.63;;;23.30;55.30;;;;;;5036144;28;20535;-55
2022/10/20 12:35:23;;;;;;;4.40;4.00;;;23.60;54.90;;;;;;5049181;28;20479;-55
2022/10/20 12:37:57;;;;;;;3.77;3.47;;;23.60;54.70;;;;;;5047566;28;21066;-55
2022/10/20 12:40:29;;;;;;;3.80;3.10;;;23.50;54.80;;;;;;5051138;28;20462;-56
2022/10/20 12:42:55;;;;;;;8.10;4.50;;;23.60;54.70;;;;;;5050633;28;20531;-55
2022/10/20 12:45:39;;;;;;;4.90;3.60;;;23.60;54.70;;;;;;5048875;28;20843;-57
2022/10/20 12:48:08;;;;;;;3.73;3.43;;;23.50;54.90;;;;;;5053672;28;20435;-55
2022/10/20 12:50:40;;;;;;;4.87;3.87;;;23.60;55.00;;;;;;5050370;28;20930;-57
2022/10/20 12:53:16;;;;;;;3.80;3.50;;;23.60;54.80;;;;;;5048488;28;20586;-55
2022/10/20 12:55:45;;;;;;;3.63;3.43;;;23.70;54.70;;;;;;5051051;28;21212;-57
2022/10/20 12:58:16;;;;;;;6.00;3.60;;;23.80;54.50;;;;;;5043996;28;20548;-55